< < Back
Terminal Aerodrome Forecast


Current Version              Previous Versions:   1  2  3  4  5  6  7  8  9  

Terminal Aerodrome Forecast

640
FTUS42 KTAE 252326
TAFTLH
TAF
KTLH 252326Z 2600/2624 24010KT P6SM SCT050 BKN250
      TEMPO 2600/2602 24013G20KT 6SM -TSRA BKN050CB
     FM260300 24004KT P6SM BKN015
     FM260900 24003KT 4SM BR BKN007
     FM261400 27010KT P6SM BKN025
     FM261800 27013KT P6SM SCT040=

Latest METAR

794
SAUS80 KWBC 260200 RRB
MTRTLH
METAR KTLH 260153Z 21005KT 10SM BKN130 24/21 A2974 RMK AO2 RAE21 TSE06
SLP070 P0000 T02390211 $


USA.gov is the U.S. government's official web portal to all federal, state and local government web resources and services.